Time,TemperatureF,DewpointF,PressureIn,WindDirection,WindDirectionDegrees,WindSpeedMPH,WindSpeedGustMPH,Humidity,HourlyPrecipIn,Conditions,Clouds,dailyrainin,SoftwareType,DateUTC
2013-10-13 00:00:00,60.5,59.1,30.01,WSW,253,7.0,14.0,95,0.07,,,0.00,VWS V14.01,2013-10-13 04:00:00,
2013-10-13 00:01:00,60.5,59.1,30.01,SW,226,1.4,8.4,95,0.00,,,0.00,VWS V14.01,2013-10-13 04:01:00,
2013-10-13 00:06:00,60.7,59.3,30.01,WSW,245,4.2,8.4,95,0.00,,,0.00,VWS V14.01,2013-10-13 04:06:00,
2013-10-13 00:11:00,60.7,59.3,30.00,WSW,239,2.8,8.4,95,0.00,,,0.00,VWS V14.01,2013-10-13 04:11:00,
2013-10-13 00:16:00,60.8,59.1,30.01,SW,218,2.8,9.8,94,0.00,,,0.00,VWS V14.01,2013-10-13 04:16:00,
2013-10-13 00:21:00,60.8,59.1,30.01,SW,231,4.2,9.8,94,0.00,,,0.00,VWS V14.01,2013-10-13 04:21:00,
2013-10-13 00:26:00,60.8,59.1,30.01,SW,235,4.2,9.8,94,0.00,,,0.00,VWS V14.01,2013-10-13 04:26:00,
2013-10-13 00:31:00,60.8,59.1,30.01,WSW,240,2.8,9.8,94,0.00,,,0.00,VWS V14.01,2013-10-13 04:31:00,
2013-10-13 00:36:00,60.7,59.0,30.01,SW,232,1.4,9.8,94,0.00,,,0.00,VWS V14.01,2013-10-13 04:36:00,
2013-10-13 00:41:00,60.6,58.9,30.01,WSW,238,4.2,9.8,94,0.00,,,0.00,VWS V14.01,2013-10-13 04:41:00,
2013-10-13 00:46:00,60.5,58.8,30.02,SW,215,1.4,9.8,94,0.00,,,0.00,VWS V14.01,2013-10-13 04:46:00,
2013-10-13 00:51:00,60.4,58.7,30.03,WSW,251,1.4,9.8,94,0.00,,,0.00,VWS V14.01,2013-10-13 04:51:00,
2013-10-13 00:56:00,60.3,58.6,30.03,SW,232,1.4,9.8,94,0.00,,,0.00,VWS V14.01,2013-10-13 04:56:00,
2013-10-13 01:00:00,60.5,59.1,30.01,WSW,253,7.0,14.0,95,0.07,,,0.00,VWS V14.01,2013-10-13 05:00:00,
2013-10-13 01:01:00,60.2,58.5,30.03,SW,235,1.4,9.8,94,0.00,,,0.00,VWS V14.01,2013-10-13 05:01:00,
2013-10-13 01:06:00,60.0,58.3,30.03,SW,225,1.4,9.8,94,0.00,,,0.00,VWS V14.01,2013-10-13 05:06:00,
2013-10-13 01:11:00,60.0,58.3,30.03,WSW,258,4.2,9.8,94,0.00,,,0.00,VWS V14.01,2013-10-13 05:11:00,
2013-10-13 01:16:00,60.1,58.1,30.03,WSW,238,2.8,9.8,93,0.00,,,0.00,VWS V14.01,2013-10-13 05:16:00,
2013-10-13 01:21:00,60.0,57.7,30.03,West,259,1.4,9.8,92,0.00,,,0.00,VWS V14.01,2013-10-13 05:21:00,
2013-10-13 01:26:00,59.4,54.9,30.05,NW,305,12.6,15.4,85,0.00,,,0.00,VWS V14.01,2013-10-13 05:26:00,
2013-10-13 01:31:00,58.0,53.2,30.05,NW,313,0.0,18.2,84,0.00,,,0.00,VWS V14.01,2013-10-13 05:31:00,
2013-10-13 01:36:00,57.0,51.9,30.06,WNW,302,4.2,18.2,83,0.00,,,0.00,VWS V14.01,2013-10-13 05:36:00,
2013-10-13 01:41:00,56.3,51.2,30.06,WNW,295,2.8,18.2,83,0.00,,,0.00,VWS V14.01,2013-10-13 05:41:00,
2013-10-13 01:46:00,55.8,51.0,30.06,West,278,1.4,18.2,84,0.00,,,0.00,VWS V14.01,2013-10-13 05:46:00,
2013-10-13 01:51:00,55.2,50.8,30.06,WNW,302,2.8,18.2,85,0.00,,,0.00,VWS V14.01,2013-10-13 05:51:00,
2013-10-13 01:56:00,54.9,50.5,30.06,NW,312,0.0,18.2,85,0.00,,,0.00,VWS V14.01,2013-10-13 05:56:00,
2013-10-13 02:00:00,54.7,50.3,30.07,NNW,337,1.4,18.2,85,0.00,,,0.00,VWS V14.01,2013-10-13 06:00:00,
2013-10-13 02:01:00,54.6,50.2,30.07,North,9,0.0,5.6,85,0.00,,,0.00,VWS V14.01,2013-10-13 06:01:00,
2013-10-13 02:06:00,54.3,50.2,30.07,NW,322,2.8,5.6,86,0.00,,,0.00,VWS V14.01,2013-10-13 06:06:00,
2013-10-13 02:11:00,54.1,50.0,30.07,WNW,286,1.4,5.6,86,0.00,,,0.00,VWS V14.01,2013-10-13 06:11:00,
2013-10-13 02:16:00,53.9,50.1,30.08,WNW,293,2.8,5.6,87,0.00,,,0.00,VWS V14.01,2013-10-13 06:16:00,
2013-10-13 02:21:00,53.8,50.0,30.08,West,269,1.4,5.6,87,0.00,,,0.00,VWS V14.01,2013-10-13 06:21:00,
2013-10-13 02:26:00,53.4,49.9,30.08,WSW,256,1.4,5.6,88,0.00,,,0.00,VWS V14.01,2013-10-13 06:26:00,
2013-10-13 02:31:00,53.4,49.6,30.08,WNW,293,0.0,5.6,87,0.00,,,0.00,VWS V14.01,2013-10-13 06:31:00,
2013-10-13 02:36:00,53.4,49.6,30.08,WNW,283,1.4,5.6,87,0.00,,,0.00,VWS V14.01,2013-10-13 06:36:00,
2013-10-13 02:41:00,53.3,49.5,30.08,WNW,286,1.4,5.6,87,0.00,,,0.00,VWS V14.01,2013-10-13 06:41:00,
2013-10-13 02:46:00,53.2,49.1,30.09,West,276,2.8,5.6,86,0.00,,,0.00,VWS V14.01,2013-10-13 06:46:00,
2013-10-13 02:51:00,53.1,49.3,30.09,WSW,256,1.4,5.6,87,0.00,,,0.00,VWS V14.01,2013-10-13 06:51:00,
2013-10-13 02:56:00,52.8,49.0,30.09,West,277,2.8,5.6,87,0.00,,,0.00,VWS V14.01,2013-10-13 06:56:00,
2013-10-13 03:00:00,54.7,50.3,30.07,NNW,337,1.4,18.2,85,0.00,,,0.00,VWS V14.01,2013-10-13 07:00:00,
2013-10-13 03:01:00,52.5,49.0,30.09,West,271,1.4,5.6,88,0.00,,,0.00,VWS V14.01,2013-10-13 07:01:00,
2013-10-13 03:06:00,52.4,48.7,30.09,West,273,2.8,5.6,87,0.00,,,0.00,VWS V14.01,2013-10-13 07:06:00,
2013-10-13 03:11:00,52.0,48.6,30.09,WNW,285,1.4,5.6,88,0.00,,,0.00,VWS V14.01,2013-10-13 07:11:00,
2013-10-13 03:16:00,52.0,48.3,30.09,WSW,253,1.4,5.6,87,0.00,,,0.00,VWS V14.01,2013-10-13 07:16:00,
2013-10-13 03:21:00,51.4,48.3,30.09,WSW,252,2.8,5.6,89,0.00,,,0.00,VWS V14.01,2013-10-13 07:21:00,
2013-10-13 03:26:00,51.2,48.1,30.09,WNW,288,1.4,5.6,89,0.00,,,0.00,VWS V14.01,2013-10-13 07:26:00,
2013-10-13 03:31:00,50.9,47.8,30.10,West,260,1.4,5.6,89,0.00,,,0.00,VWS V14.01,2013-10-13 07:31:00,
2013-10-13 03:36:00,50.8,47.7,30.09,NW,308,1.4,5.6,89,0.00,,,0.00,VWS V14.01,2013-10-13 07:36:00,
2013-10-13 03:41:00,51.0,47.6,30.10,West,267,1.4,5.6,88,0.00,,,0.00,VWS V14.01,2013-10-13 07:41:00,
2013-10-13 03:46:00,50.9,47.5,30.10,WSW,256,1.4,5.6,88,0.00,,,0.00,VWS V14.01,2013-10-13 07:46:00,
2013-10-13 03:51:00,50.6,47.5,30.10,WSW,255,2.8,5.6,89,0.00,,,0.00,VWS V14.01,2013-10-13 07:51:00,
2013-10-13 03:56:00,50.6,47.5,30.10,West,270,1.4,5.6,89,0.00,,,0.00,VWS V14.01,2013-10-13 07:56:00,
2013-10-13 04:00:00,50.6,47.2,30.11,West,271,1.4,5.6,88,0.00,,,0.00,VWS V14.01,2013-10-13 08:00:00,
2013-10-13 04:01:00,50.6,47.2,30.11,West,259,1.4,4.2,88,0.00,,,0.00,VWS V14.01,2013-10-13 08:01:00,
2013-10-13 04:06:00,50.6,47.2,30.11,West,264,1.4,5.6,88,0.00,,,0.00,VWS V14.01,2013-10-13 08:06:00,
2013-10-13 04:11:00,50.6,46.9,30.11,West,262,1.4,5.6,87,0.00,,,0.00,VWS V14.01,2013-10-13 08:11:00,
2013-10-13 04:16:00,50.4,46.7,30.11,West,259,1.4,5.6,87,0.00,,,0.00,VWS V14.01,2013-10-13 08:16:00,
2013-10-13 04:21:00,50.2,46.8,30.11,WSW,248,0.0,5.6,88,0.00,,,0.00,VWS V14.01,2013-10-13 08:21:00,
2013-10-13 04:26:00,50.0,46.6,30.11,West,262,2.8,5.6,88,0.00,,,0.00,VWS V14.01,2013-10-13 08:26:00,
2013-10-13 04:31:00,49.9,46.5,30.11,WSW,255,2.8,5.6,88,0.00,,,0.00,VWS V14.01,2013-10-13 08:31:00,
2013-10-13 04:36:00,49.7,46.3,30.11,WSW,252,1.4,5.6,88,0.00,,,0.00,VWS V14.01,2013-10-13 08:36:00,
2013-10-13 04:41:00,49.6,46.2,30.12,West,259,1.4,5.6,88,0.00,,,0.00,VWS V14.01,2013-10-13 08:41:00,
2013-10-13 04:46:00,49.4,46.0,30.12,WSW,256,1.4,5.6,88,0.00,,,0.00,VWS V14.01,2013-10-13 08:46:00,
2013-10-13 04:51:00,49.1,46.0,30.12,WSW,252,1.4,5.6,89,0.00,,,0.00,VWS V14.01,2013-10-13 08:51:00,
2013-10-13 04:56:00,48.8,45.7,30.12,WSW,256,2.8,5.6,89,0.00,,,0.00,VWS V14.01,2013-10-13 08:56:00,
2013-10-13 05:00:00,50.6,47.2,30.11,West,271,1.4,5.6,88,0.00,,,0.00,VWS V14.01,2013-10-13 09:00:00,
2013-10-13 05:01:00,48.9,46.1,30.12,West,274,4.2,5.6,90,0.00,,,0.00,VWS V14.01,2013-10-13 09:01:00,
2013-10-13 05:06:00,49.3,46.2,30.13,WSW,238,2.8,5.6,89,0.00,,,0.00,VWS V14.01,2013-10-13 09:06:00,
2013-10-13 05:11:00,49.4,46.6,30.13,WSW,240,1.4,5.6,90,0.00,,,0.00,VWS V14.01,2013-10-13 09:11:00,
2013-10-13 05:16:00,49.5,47.0,30.13,West,262,7.0,7.0,91,0.00,,,0.00,VWS V14.01,2013-10-13 09:16:00,
2013-10-13 05:21:00,49.8,47.0,30.14,West,273,2.8,8.4,90,0.00,,,0.00,VWS V14.01,2013-10-13 09:21:00,
2013-10-13 05:26:00,50.1,47.0,30.14,West,260,2.8,8.4,89,0.00,,,0.00,VWS V14.01,2013-10-13 09:26:00,
2013-10-13 05:31:00,50.2,46.8,30.14,WNW,294,1.4,8.4,88,0.00,,,0.00,VWS V14.01,2013-10-13 09:31:00,
2013-10-13 05:36:00,50.0,46.6,30.14,WNW,285,1.4,8.4,88,0.00,,,0.00,VWS V14.01,2013-10-13 09:36:00,
2013-10-13 05:41:00,49.9,46.5,30.15,West,281,1.4,8.4,88,0.00,,,0.00,VWS V14.01,2013-10-13 09:41:00,
2013-10-13 05:46:00,49.8,46.4,30.15,West,269,4.2,8.4,88,0.00,,,0.00,VWS V14.01,2013-10-13 09:46:00,
2013-10-13 05:51:00,49.9,46.2,30.15,NW,314,7.0,8.4,87,0.00,,,0.00,VWS V14.01,2013-10-13 09:51:00,
2013-10-13 05:56:00,49.9,46.2,30.15,West,260,2.8,9.8,87,0.00,,,0.00,VWS V14.01,2013-10-13 09:56:00,
2013-10-13 06:00:00,49.8,45.8,30.15,WNW,298,5.6,9.8,86,0.00,,,0.00,VWS V14.01,2013-10-13 10:00:00,
2013-10-13 06:01:00,49.9,45.9,30.15,WSW,248,0.0,8.4,86,0.00,,,0.00,VWS V14.01,2013-10-13 10:01:00,
2013-10-13 06:06:00,49.9,45.6,30.15,WNW,287,2.8,11.2,85,0.00,,,0.00,VWS V14.01,2013-10-13 10:06:00,
2013-10-13 06:11:00,49.9,45.6,30.15,West,281,4.2,11.2,85,0.00,,,0.00,VWS V14.01,2013-10-13 10:11:00,
2013-10-13 06:16:00,49.8,45.5,30.16,WNW,285,4.2,11.2,85,0.00,,,0.00,VWS V14.01,2013-10-13 10:16:00,
2013-10-13 06:21:00,49.6,45.3,30.16,West,262,8.4,11.2,85,0.00,,,0.00,VWS V14.01,2013-10-13 10:21:00,
2013-10-13 06:26:00,49.5,45.5,30.16,WNW,300,0.0,11.2,86,0.00,,,0.00,VWS V14.01,2013-10-13 10:26:00,
2013-10-13 06:31:00,49.3,45.3,30.16,WNW,290,1.4,11.2,86,0.00,,,0.00,VWS V14.01,2013-10-13 10:31:00,
2013-10-13 06:36:00,49.0,45.3,30.16,WNW,283,2.8,11.2,87,0.00,,,0.00,VWS V14.01,2013-10-13 10:36:00,
2013-10-13 06:41:00,49.0,45.3,30.17,West,281,2.8,11.2,87,0.00,,,0.00,VWS V14.01,2013-10-13 10:41:00,
2013-10-13 06:46:00,48.9,45.2,30.17,WNW,293,1.4,11.2,87,0.00,,,0.00,VWS V14.01,2013-10-13 10:46:00,
2013-10-13 06:51:00,48.8,45.1,30.17,WNW,290,2.8,11.2,87,0.00,,,0.00,VWS V14.01,2013-10-13 10:51:00,
2013-10-13 06:56:00,48.8,45.1,30.17,West,273,0.0,11.2,87,0.00,,,0.00,VWS V14.01,2013-10-13 10:56:00,
2013-10-13 07:00:00,49.8,45.8,30.15,WNW,298,5.6,9.8,86,0.00,,,0.00,VWS V14.01,2013-10-13 11:00:00,
2013-10-13 07:01:00,48.7,45.0,30.17,West,266,1.4,11.2,87,0.00,,,0.00,VWS V14.01,2013-10-13 11:01:00,
2013-10-13 07:06:00,48.7,45.0,30.17,West,276,1.4,11.2,87,0.00,,,0.00,VWS V14.01,2013-10-13 11:06:00,
2013-10-13 07:11:00,48.5,44.8,30.18,West,273,5.6,11.2,87,0.00,,,0.00,VWS V14.01,2013-10-13 11:11:00,
2013-10-13 07:16:00,48.4,44.7,30.18,West,278,1.4,11.2,87,0.00,,,0.00,VWS V14.01,2013-10-13 11:16:00,
2013-10-13 07:21:00,48.2,44.5,30.18,WNW,283,2.8,11.2,87,0.00,,,0.00,VWS V14.01,2013-10-13 11:21:00,
2013-10-13 07:26:00,48.0,44.3,30.18,West,278,2.8,11.2,87,0.00,,,0.00,VWS V14.01,2013-10-13 11:26:00,
2013-10-13 07:31:00,47.7,44.0,30.18,WNW,302,1.4,11.2,87,0.00,,,0.00,VWS V14.01,2013-10-13 11:31:00,
2013-10-13 07:36:00,47.4,44.0,30.18,WNW,288,1.4,11.2,88,0.00,,,0.00,VWS V14.01,2013-10-13 11:36:00,
2013-10-13 07:41:00,47.5,44.1,30.19,WNW,293,4.2,11.2,88,0.00,,,0.00,VWS V14.01,2013-10-13 11:41:00,
2013-10-13 07:46:00,47.5,44.1,30.19,WNW,288,2.8,11.2,88,0.00,,,0.00,VWS V14.01,2013-10-13 11:46:00,
2013-10-13 07:51:00,47.4,44.0,30.19,West,276,4.2,11.2,88,0.00,,,0.00,VWS V14.01,2013-10-13 11:51:00,
2013-10-13 07:56:00,47.5,43.8,30.19,NW,316,1.4,11.2,87,0.00,,,0.00,VWS V14.01,2013-10-13 11:56:00,
2013-10-13 08:00:00,47.6,43.9,30.19,WNW,290,4.2,11.2,87,0.00,,,0.00,VWS V14.01,2013-10-13 12:00:00,
2013-10-13 08:01:00,47.7,44.0,30.20,West,280,0.0,4.2,87,0.00,,,0.00,VWS V14.01,2013-10-13 12:01:00,
2013-10-13 08:06:00,47.7,44.0,30.20,NW,324,0.0,7.0,87,0.00,,,0.00,VWS V14.01,2013-10-13 12:06:00,
2013-10-13 08:11:00,47.6,43.9,30.20,WNW,288,2.8,7.0,87,0.00,,,0.00,VWS V14.01,2013-10-13 12:11:00,
2013-10-13 08:16:00,47.6,43.9,30.20,WNW,294,4.2,7.0,87,0.00,,,0.00,VWS V14.01,2013-10-13 12:16:00,
2013-10-13 08:21:00,47.7,44.0,30.20,WNW,293,2.8,7.0,87,0.00,,,0.00,VWS V14.01,2013-10-13 12:21:00,
2013-10-13 08:26:00,47.8,44.1,30.21,West,266,0.0,7.0,87,0.00,,,0.00,VWS V14.01,2013-10-13 12:26:00,
2013-10-13 08:31:00,48.3,44.3,30.21,WSW,256,0.0,7.0,86,0.00,,,0.00,VWS V14.01,2013-10-13 12:31:00,
2013-10-13 08:35:00,48.6,44.6,30.22,West,264,2.8,7.0,86,0.00,,,0.00,VWS V14.01,2013-10-13 12:35:00,
2013-10-13 08:40:00,49.2,44.9,30.22,WNW,283,0.0,7.0,85,0.00,,,0.00,VWS V14.01,2013-10-13 12:40:00,
2013-10-13 08:45:00,49.8,45.2,30.22,WSW,242,2.8,7.0,84,0.00,,,0.00,VWS V14.01,2013-10-13 12:45:00,
2013-10-13 08:50:00,50.5,45.5,30.22,West,263,2.8,7.0,83,0.00,,,0.00,VWS V14.01,2013-10-13 12:50:00,
2013-10-13 08:55:00,50.9,45.6,30.22,West,278,2.8,7.0,82,0.00,,,0.00,VWS V14.01,2013-10-13 12:55:00,
2013-10-13 09:00:00,51.3,46.0,30.22,WNW,297,1.4,7.0,82,0.00,,,0.00,VWS V14.01,2013-10-13 13:00:00,
2013-10-13 09:05:00,51.7,46.4,30.23,NW,309,7.0,7.0,82,0.00,,,0.00,VWS V14.01,2013-10-13 13:05:00,
2013-10-13 09:10:00,51.9,46.3,30.23,WSW,248,1.4,7.0,81,0.00,,,0.00,VWS V14.01,2013-10-13 13:10:00,
2013-10-13 09:15:00,52.2,46.5,30.23,West,277,1.4,7.0,81,0.00,,,0.00,VWS V14.01,2013-10-13 13:15:00,
2013-10-13 09:20:00,52.5,46.8,30.23,NW,315,1.4,7.0,81,0.00,,,0.00,VWS V14.01,2013-10-13 13:20:00,
2013-10-13 09:25:00,52.8,46.8,30.23,WNW,294,2.8,8.4,80,0.00,,,0.00,VWS V14.01,2013-10-13 13:25:00,
2013-10-13 09:30:00,53.1,47.1,30.23,West,260,4.2,9.8,80,0.00,,,0.00,VWS V14.01,2013-10-13 13:30:00,
2013-10-13 09:35:00,53.3,47.3,30.23,NE,43,2.8,9.8,80,0.00,,,0.00,VWS V14.01,2013-10-13 13:35:00,
2013-10-13 09:40:00,53.7,47.3,30.23,WNW,291,4.2,9.8,79,0.00,,,0.00,VWS V14.01,2013-10-13 13:40:00,
2013-10-13 09:45:00,54.1,47.7,30.23,NNW,332,5.6,9.8,79,0.00,,,0.00,VWS V14.01,2013-10-13 13:45:00,
2013-10-13 09:50:00,54.2,47.5,30.24,NW,305,4.2,15.4,78,0.00,,,0.00,VWS V14.01,2013-10-13 13:50:00,
2013-10-13 09:55:00,54.1,47.4,30.24,West,263,4.2,16.8,78,0.00,,,0.00,VWS V14.01,2013-10-13 13:55:00,
2013-10-13 10:00:00,54.1,47.4,30.25,NW,312,15.4,16.8,78,0.00,,,0.00,VWS V14.01,2013-10-13 14:00:00,
2013-10-13 10:05:00,54.2,47.8,30.25,West,276,5.6,16.8,79,0.00,,,0.00,VWS V14.01,2013-10-13 14:05:00,
2013-10-13 10:10:00,54.5,47.8,30.25,SSW,212,2.8,21.0,78,0.00,,,0.00,VWS V14.01,2013-10-13 14:10:00,
2013-10-13 10:15:00,54.9,48.2,30.25,NW,322,2.8,21.0,78,0.00,,,0.00,VWS V14.01,2013-10-13 14:15:00,
2013-10-13 10:20:00,55.5,48.8,30.25,NNW,329,4.2,21.0,78,0.00,,,0.00,VWS V14.01,2013-10-13 14:20:00,
2013-10-13 10:25:00,55.9,48.5,30.25,West,267,4.2,21.0,76,0.00,,,0.00,VWS V14.01,2013-10-13 14:25:00,
2013-10-13 10:30:00,56.3,48.1,30.25,NNE,23,5.6,21.0,74,0.00,,,0.00,VWS V14.01,2013-10-13 14:30:00,
2013-10-13 10:35:00,56.5,47.6,30.26,West,277,11.2,28.0,72,0.00,,,0.00,VWS V14.01,2013-10-13 14:35:00,
2013-10-13 10:40:00,56.5,48.3,30.26,WNW,285,8.4,28.0,74,0.00,,,0.00,VWS V14.01,2013-10-13 14:40:00,
2013-10-13 10:45:00,56.9,48.7,30.26,SSW,197,5.6,28.0,74,0.00,,,0.00,VWS V14.01,2013-10-13 14:45:00,
2013-10-13 10:50:00,57.0,49.2,30.27,NNW,331,8.4,28.0,75,0.00,,,0.00,VWS V14.01,2013-10-13 14:50:00,
2013-10-13 10:55:00,57.2,49.4,30.27,WNW,285,12.6,28.0,75,0.00,,,0.00,VWS V14.01,2013-10-13 14:55:00,
2013-10-13 11:00:00,57.4,49.2,30.27,WNW,291,1.4,28.0,74,0.00,,,0.00,VWS V14.01,2013-10-13 15:00:00,
2013-10-13 11:05:00,57.4,49.2,30.27,NW,309,8.4,28.0,74,0.00,,,0.00,VWS V14.01,2013-10-13 15:05:00,
2013-10-13 11:10:00,57.0,49.5,30.27,West,270,18.2,28.0,76,0.00,,,0.00,VWS V14.01,2013-10-13 15:10:00,
2013-10-13 11:15:00,56.7,49.6,30.27,West,274,4.2,28.0,77,0.00,,,0.00,VWS V14.01,2013-10-13 15:15:00,
2013-10-13 11:20:00,56.4,49.3,30.27,WNW,295,8.4,28.0,77,0.00,,,0.00,VWS V14.01,2013-10-13 15:20:00,
2013-10-13 11:25:00,56.1,49.3,30.27,NW,315,7.0,28.0,78,0.00,,,0.00,VWS V14.01,2013-10-13 15:25:00,
2013-10-13 11:30:00,56.4,49.6,30.27,North,355,11.2,28.0,78,0.00,,,0.00,VWS V14.01,2013-10-13 15:30:00,
2013-10-13 11:35:00,56.5,49.0,30.28,NE,36,9.8,30.8,76,0.00,,,0.00,VWS V14.01,2013-10-13 15:35:00,
2013-10-13 11:40:00,55.8,49.0,30.28,NNW,340,14.0,30.8,78,0.00,,,0.00,VWS V14.01,2013-10-13 15:40:00,
2013-10-13 11:45:00,55.7,49.3,30.28,NW,316,11.2,30.8,79,0.00,,,0.00,VWS V14.01,2013-10-13 15:45:00,
2013-10-13 11:50:00,55.5,48.8,30.28,NW,321,14.0,30.8,78,0.00,,,0.00,VWS V14.01,2013-10-13 15:50:00,
2013-10-13 11:55:00,55.4,49.0,30.28,SW,224,4.2,30.8,79,0.00,,,0.00,VWS V14.01,2013-10-13 15:55:00,
2013-10-13 12:00:00,55.1,48.7,30.29,West,273,2.8,11.2,79,0.00,,,0.00,VWS V14.01,2013-10-13 16:00:00,
2013-10-13 12:05:00,55.1,48.7,30.29,WNW,288,4.2,21.0,79,0.00,,,0.00,VWS V14.01,2013-10-13 16:05:00,
2013-10-13 12:10:00,55.4,49.0,30.29,North,351,4.2,21.0,79,0.00,,,0.00,VWS V14.01,2013-10-13 16:10:00,
2013-10-13 12:15:00,55.8,49.4,30.29,WNW,302,7.0,21.0,79,0.00,,,0.00,VWS V14.01,2013-10-13 16:15:00,
2013-10-13 12:20:00,56.3,49.2,30.29,West,264,1.4,21.0,77,0.00,,,0.00,VWS V14.01,2013-10-13 16:20:00,
2013-10-13 12:25:00,56.4,48.9,30.29,NW,304,14.0,21.0,76,0.00,,,0.00,VWS V14.01,2013-10-13 16:25:00,
2013-10-13 12:30:00,56.2,49.1,30.30,WNW,285,9.8,21.0,77,0.00,,,0.00,VWS V14.01,2013-10-13 16:30:00,
2013-10-13 12:35:00,56.1,49.0,30.30,NNW,334,4.2,21.0,77,0.00,,,0.00,VWS V14.01,2013-10-13 16:35:00,
2013-10-13 12:40:00,55.8,49.0,30.30,NNW,332,4.2,21.0,78,0.00,,,0.00,VWS V14.01,2013-10-13 16:40:00,
2013-10-13 12:45:00,56.2,49.4,30.30,SE,146,5.6,21.0,78,0.00,,,0.00,VWS V14.01,2013-10-13 16:45:00,
2013-10-13 12:50:00,56.1,49.3,30.30,NNW,329,4.2,21.0,78,0.00,,,0.00,VWS V14.01,2013-10-13 16:50:00,
2013-10-13 12:55:00,55.3,49.2,30.30,NW,311,12.6,21.0,80,0.00,,,0.00,VWS V14.01,2013-10-13 16:55:00,
2013-10-13 13:00:00,54.2,48.2,30.31,WNW,292,16.8,28.0,80,0.00,,,0.00,VWS V14.01,2013-10-13 17:00:00,
2013-10-13 13:05:00,52.7,47.4,30.31,NNE,25,11.2,28.0,82,0.00,,,0.00,VWS V14.01,2013-10-13 17:05:00,
2013-10-13 13:10:00,52.1,47.7,30.31,NW,304,8.4,28.0,85,0.00,,,0.00,VWS V14.01,2013-10-13 17:10:00,
2013-10-13 13:15:00,52.0,47.0,30.31,NNW,330,8.4,28.0,83,0.00,,,0.00,VWS V14.01,2013-10-13 17:15:00,
2013-10-13 13:20:00,52.5,47.2,30.31,NNW,340,2.8,28.0,82,0.00,,,0.00,VWS V14.01,2013-10-13 17:20:00,
2013-10-13 13:25:00,53.6,48.2,30.31,WNW,293,5.6,28.0,82,0.00,,,0.00,VWS V14.01,2013-10-13 17:25:00,
2013-10-13 13:30:00,54.6,48.2,30.31,SW,222,5.6,28.0,79,0.00,,,0.00,VWS V14.01,2013-10-13 17:30:00,
2013-10-13 13:35:00,55.3,47.9,30.31,WNW,294,5.6,28.0,76,0.00,,,0.00,VWS V14.01,2013-10-13 17:35:00,
2013-10-13 13:40:00,55.1,48.0,30.31,NW,315,7.0,28.0,77,0.00,,,0.00,VWS V14.01,2013-10-13 17:40:00,
2013-10-13 13:45:00,55.1,48.0,30.31,NW,319,5.6,28.0,77,0.00,,,0.00,VWS V14.01,2013-10-13 17:45:00,
2013-10-13 13:50:00,55.4,47.6,30.30,WNW,299,5.6,28.0,75,0.00,,,0.00,VWS V14.01,2013-10-13 17:50:00,
2013-10-13 13:55:00,55.5,47.7,30.31,NNE,18,2.8,28.0,75,0.00,,,0.00,VWS V14.01,2013-10-13 17:55:00,
2013-10-13 14:00:00,55.3,47.5,30.31,SSW,207,5.6,12.6,75,0.00,,,0.00,VWS V14.01,2013-10-13 18:00:00,
2013-10-13 14:05:00,55.0,47.6,30.31,North,4,19.6,19.6,76,0.00,,,0.00,VWS V14.01,2013-10-13 18:05:00,
2013-10-13 14:10:00,54.8,47.4,30.31,NW,309,12.6,22.4,76,0.00,,,0.00,VWS V14.01,2013-10-13 18:10:00,
2013-10-13 14:15:00,54.9,47.1,30.30,WNW,294,8.4,22.4,75,0.00,,,0.00,VWS V14.01,2013-10-13 18:15:00,
2013-10-13 14:20:00,55.3,47.2,30.30,NNE,25,2.8,25.2,74,0.00,,,0.00,VWS V14.01,2013-10-13 18:20:00,
2013-10-13 14:25:00,55.6,46.7,30.30,WNW,285,8.4,25.2,72,0.00,,,0.00,VWS V14.01,2013-10-13 18:25:00,
2013-10-13 14:30:00,55.4,46.5,30.30,NW,312,19.6,25.2,72,0.00,,,0.00,VWS V14.01,2013-10-13 18:30:00,
2013-10-13 14:35:00,55.2,45.6,30.31,WNW,291,11.2,29.4,70,0.00,,,0.00,VWS V14.01,2013-10-13 18:35:00,
2013-10-13 14:40:00,55.0,46.5,30.31,NNW,334,16.8,29.4,73,0.00,,,0.00,VWS V14.01,2013-10-13 18:40:00,
2013-10-13 14:45:00,54.7,46.6,30.31,WNW,291,5.6,29.4,74,0.00,,,0.00,VWS V14.01,2013-10-13 18:45:00,
2013-10-13 14:50:00,54.6,46.1,30.32,WSW,257,7.0,29.4,73,0.00,,,0.00,VWS V14.01,2013-10-13 18:50:00,
2013-10-13 14:55:00,54.6,46.1,30.31,NNW,330,8.4,29.4,73,0.00,,,0.00,VWS V14.01,2013-10-13 18:55:00,
2013-10-13 15:00:00,54.5,45.3,30.31,NW,308,11.2,29.4,71,0.00,,,0.00,VWS V14.01,2013-10-13 19:00:00,
2013-10-13 15:05:00,54.7,45.5,30.31,NNW,344,8.4,29.4,71,0.00,,,0.00,VWS V14.01,2013-10-13 19:05:00,
2013-10-13 15:10:00,54.8,44.8,30.31,ENE,74,8.4,29.4,69,0.00,,,0.00,VWS V14.01,2013-10-13 19:10:00,
2013-10-13 15:15:00,54.7,44.4,30.31,NNW,328,14.0,29.4,68,0.00,,,0.00,VWS V14.01,2013-10-13 19:15:00,
2013-10-13 15:20:00,55.3,44.9,30.31,WNW,283,9.8,29.4,68,0.00,,,0.00,VWS V14.01,2013-10-13 19:20:00,
2013-10-13 15:25:00,55.6,45.2,30.31,SW,235,22.4,29.4,68,0.00,,,0.00,VWS V14.01,2013-10-13 19:25:00,
2013-10-13 15:30:00,55.1,45.5,30.32,NW,322,9.8,29.4,70,0.00,,,0.00,VWS V14.01,2013-10-13 19:30:00,
2013-10-13 15:35:00,54.9,45.3,30.32,NW,325,19.6,29.4,70,0.00,,,0.00,VWS V14.01,2013-10-13 19:35:00,
2013-10-13 15:40:00,55.0,45.0,30.32,NW,318,16.8,29.4,69,0.00,,,0.00,VWS V14.01,2013-10-13 19:40:00,
2013-10-13 15:45:00,54.6,45.0,30.32,North,350,14.0,29.4,70,0.00,,,0.00,VWS V14.01,2013-10-13 19:45:00,
2013-10-13 15:50:00,54.8,45.2,30.32,NNW,332,12.6,29.4,70,0.00,,,0.00,VWS V14.01,2013-10-13 19:50:00,
2013-10-13 15:55:00,54.7,45.5,30.32,WSW,258,12.6,29.4,71,0.00,,,0.00,VWS V14.01,2013-10-13 19:55:00,
2013-10-13 16:00:00,54.3,45.5,30.32,NNW,337,21.0,21.0,72,0.00,,,0.00,VWS V14.01,2013-10-13 20:00:00,
2013-10-13 16:05:00,54.3,45.5,30.32,North,1,5.6,22.4,72,0.00,,,0.00,VWS V14.01,2013-10-13 20:05:00,
2013-10-13 16:10:00,54.1,45.3,30.33,North,360,7.0,28.0,72,0.00,,,0.00,VWS V14.01,2013-10-13 20:10:00,
2013-10-13 16:15:00,53.8,45.0,30.33,West,259,9.8,28.0,72,0.00,,,0.00,VWS V14.01,2013-10-13 20:15:00,
2013-10-13 16:20:00,53.8,45.0,30.33,NNW,334,19.6,28.0,72,0.00,,,0.00,VWS V14.01,2013-10-13 20:20:00,
2013-10-13 16:25:00,53.7,44.9,30.33,WNW,288,7.0,28.0,72,0.00,,,0.00,VWS V14.01,2013-10-13 20:25:00,
2013-10-13 16:30:00,53.8,45.0,30.33,NNW,333,4.2,28.0,72,0.00,,,0.00,VWS V14.01,2013-10-13 20:30:00,
2013-10-13 16:35:00,54.4,45.2,30.33,WSW,255,4.2,28.0,71,0.00,,,0.00,VWS V14.01,2013-10-13 20:35:00,
2013-10-13 16:40:00,54.5,44.9,30.33,NW,305,4.2,28.0,70,0.00,,,0.00,VWS V14.01,2013-10-13 20:40:00,
2013-10-13 16:45:00,54.2,45.0,30.33,North,4,5.6,28.0,71,0.00,,,0.00,VWS V14.01,2013-10-13 20:45:00,
2013-10-13 16:50:00,54.4,44.8,30.33,NNE,22,14.0,28.0,70,0.00,,,0.00,VWS V14.01,2013-10-13 20:50:00,
2013-10-13 16:55:00,54.3,44.4,30.34,NNW,333,14.0,28.0,69,0.00,,,0.00,VWS V14.01,2013-10-13 20:55:00,
2013-10-13 17:00:00,53.9,44.0,30.34,WNW,290,4.2,28.0,69,0.00,,,0.00,VWS V14.01,2013-10-13 21:00:00,
2013-10-13 17:05:00,53.2,43.7,30.34,SW,226,8.4,28.0,70,0.00,,,0.00,VWS V14.01,2013-10-13 21:05:00,
2013-10-13 17:10:00,52.9,43.4,30.34,SW,221,8.4,28.0,70,0.00,,,0.00,VWS V14.01,2013-10-13 21:10:00,
2013-10-13 17:15:00,53.1,43.2,30.34,NW,310,14.0,28.0,69,0.00,,,0.00,VWS V14.01,2013-10-13 21:15:00,
2013-10-13 17:20:00,53.1,43.6,30.34,North,4,8.4,28.0,70,0.00,,,0.00,VWS V14.01,2013-10-13 21:20:00,
2013-10-13 17:25:00,53.2,43.7,30.34,NNW,341,8.4,28.0,70,0.00,,,0.00,VWS V14.01,2013-10-13 21:25:00,
2013-10-13 17:30:00,53.3,43.8,30.34,West,260,11.2,28.0,70,0.00,,,0.00,VWS V14.01,2013-10-13 21:30:00,
2013-10-13 17:35:00,53.3,43.4,30.34,NNW,342,2.8,28.0,69,0.00,,,0.00,VWS V14.01,2013-10-13 21:35:00,
2013-10-13 17:40:00,53.1,43.6,30.34,North,1,15.4,28.0,70,0.00,,,0.00,VWS V14.01,2013-10-13 21:40:00,
2013-10-13 17:45:00,53.0,43.9,30.34,WNW,289,14.0,28.0,71,0.00,,,0.00,VWS V14.01,2013-10-13 21:45:00,
2013-10-13 17:50:00,53.0,43.5,30.34,West,270,7.0,28.0,70,0.00,,,0.00,VWS V14.01,2013-10-13 21:50:00,
2013-10-13 17:55:00,52.6,43.1,30.35,West,277,8.4,28.0,70,0.00,,,0.00,VWS V14.01,2013-10-13 21:55:00,
2013-10-13 18:00:00,52.5,43.0,30.35,West,273,1.4,9.8,70,0.00,,,0.00,VWS V14.01,2013-10-13 22:00:00,
2013-10-13 18:05:00,52.4,43.3,30.35,West,261,5.6,16.8,71,0.00,,,0.00,VWS V14.01,2013-10-13 22:05:00,
2013-10-13 18:10:00,52.2,43.5,30.35,NNE,15,8.4,16.8,72,0.00,,,0.00,VWS V14.01,2013-10-13 22:10:00,
2013-10-13 18:15:00,51.8,43.1,30.35,NNW,335,5.6,16.8,72,0.00,,,0.00,VWS V14.01,2013-10-13 22:15:00,
2013-10-13 18:20:00,51.8,42.3,30.35,NNW,334,9.8,16.8,70,0.00,,,0.00,VWS V14.01,2013-10-13 22:20:00,
2013-10-13 18:25:00,51.2,42.1,30.35,NW,322,2.8,16.8,71,0.00,,,0.00,VWS V14.01,2013-10-13 22:25:00,
2013-10-13 18:30:00,50.8,41.8,30.36,WNW,302,5.6,16.8,71,0.00,,,0.00,VWS V14.01,2013-10-13 22:30:00,
2013-10-13 18:35:00,50.4,41.7,30.36,NW,317,9.8,16.8,72,0.00,,,0.00,VWS V14.01,2013-10-13 22:35:00,
2013-10-13 18:40:00,50.1,41.8,30.36,NW,315,8.4,23.8,73,0.00,,,0.00,VWS V14.01,2013-10-13 22:40:00,
2013-10-13 18:45:00,49.9,42.0,30.36,NNE,20,2.8,23.8,74,0.00,,,0.00,VWS V14.01,2013-10-13 22:45:00,
2013-10-13 18:50:00,49.7,42.1,30.36,NNW,339,4.2,23.8,75,0.00,,,0.00,VWS V14.01,2013-10-13 22:50:00,
2013-10-13 18:55:00,49.6,42.4,30.36,NW,314,8.4,23.8,76,0.00,,,0.00,VWS V14.01,2013-10-13 22:55:00,
2013-10-13 19:00:00,49.6,42.4,30.36,NNW,345,5.6,23.8,76,0.00,,,0.00,VWS V14.01,2013-10-13 23:00:00,
2013-10-13 19:05:00,49.5,42.6,30.36,North,350,7.0,23.8,77,0.00,,,0.00,VWS V14.01,2013-10-13 23:05:00,
2013-10-13 19:10:00,49.3,42.4,30.36,NNW,340,7.0,23.8,77,0.00,,,0.00,VWS V14.01,2013-10-13 23:10:00,
2013-10-13 19:15:00,49.3,42.1,30.36,ENE,65,2.8,23.8,76,0.00,,,0.00,VWS V14.01,2013-10-13 23:15:00,
2013-10-13 19:20:00,49.3,42.1,30.36,NW,308,2.8,23.8,76,0.00,,,0.00,VWS V14.01,2013-10-13 23:20:00,
2013-10-13 19:24:00,49.2,42.0,30.36,NW,321,4.2,23.8,76,0.00,,,0.00,VWS V14.01,2013-10-13 23:24:00,
2013-10-13 19:29:00,49.0,42.1,30.36,NNW,327,7.0,23.8,77,0.00,,,0.00,VWS V14.01,2013-10-13 23:29:00,
2013-10-13 19:34:00,48.9,42.0,30.37,WNW,285,1.4,23.8,77,0.00,,,0.00,VWS V14.01,2013-10-13 23:34:00,
2013-10-13 19:39:00,48.7,42.2,30.37,NNE,13,8.4,23.8,78,0.00,,,0.00,VWS V14.01,2013-10-13 23:39:00,
2013-10-13 19:44:00,48.7,42.2,30.37,WSW,252,4.2,23.8,78,0.00,,,0.00,VWS V14.01,2013-10-13 23:44:00,
2013-10-13 19:49:00,48.7,42.2,30.37,NW,321,4.2,23.8,78,0.00,,,0.00,VWS V14.01,2013-10-13 23:49:00,
2013-10-13 19:54:00,48.5,42.0,30.37,NW,326,1.4,23.8,78,0.00,,,0.00,VWS V14.01,2013-10-13 23:54:00,
2013-10-13 19:59:00,48.6,42.1,30.37,NNE,19,1.4,23.8,78,0.00,,,0.00,VWS V14.01,2013-10-13 23:59:00,
2013-10-13 20:00:00,48.6,42.1,30.37,NNE,19,1.4,23.8,78,0.00,,,0.00,VWS V14.01,2013-10-14 00:00:00,
2013-10-13 20:04:00,48.5,42.0,30.37,WNW,283,1.4,8.4,78,0.00,,,0.00,VWS V14.01,2013-10-14 00:04:00,
2013-10-13 20:09:00,48.6,41.7,30.38,North,8,8.4,9.8,77,0.00,,,0.00,VWS V14.01,2013-10-14 00:09:00,
2013-10-13 20:14:00,48.5,41.3,30.38,NNW,328,7.0,14.0,76,0.00,,,0.00,VWS V14.01,2013-10-14 00:14:00,
2013-10-13 20:19:00,48.5,41.3,30.38,NW,314,0.0,14.0,76,0.00,,,0.00,VWS V14.01,2013-10-14 00:19:00,
2013-10-13 20:24:00,48.5,41.3,30.38,NNW,334,8.4,14.0,76,0.00,,,0.00,VWS V14.01,2013-10-14 00:24:00,
2013-10-13 20:29:00,48.4,41.2,30.38,West,259,0.0,14.0,76,0.00,,,0.00,VWS V14.01,2013-10-14 00:29:00,
2013-10-13 20:34:00,48.5,41.6,30.38,NW,322,4.2,15.4,77,0.00,,,0.00,VWS V14.01,2013-10-14 00:34:00,
2013-10-13 20:39:00,48.5,41.3,30.38,WNW,283,5.6,15.4,76,0.00,,,0.00,VWS V14.01,2013-10-14 00:39:00,
2013-10-13 20:44:00,48.5,41.3,30.38,NW,304,2.8,15.4,76,0.00,,,0.00,VWS V14.01,2013-10-14 00:44:00,
2013-10-13 20:49:00,48.5,40.6,30.38,West,278,1.4,15.4,74,0.00,,,0.00,VWS V14.01,2013-10-14 00:49:00,
2013-10-13 20:54:00,48.5,41.0,30.39,WSW,239,1.4,15.4,75,0.00,,,0.00,VWS V14.01,2013-10-14 00:54:00,
2013-10-13 20:59:00,48.5,41.0,30.39,WNW,291,9.8,15.4,75,0.00,,,0.00,VWS V14.01,2013-10-14 00:59:00,
2013-10-13 21:00:00,48.6,42.1,30.37,NNE,19,1.4,23.8,78,0.00,,,0.00,VWS V14.01,2013-10-14 01:00:00,
2013-10-13 21:04:00,48.5,41.0,30.39,ENE,68,1.4,18.2,75,0.00,,,0.00,VWS V14.01,2013-10-14 01:04:00,
2013-10-13 21:09:00,48.5,41.0,30.39,WNW,290,2.8,18.2,75,0.00,,,0.00,VWS V14.01,2013-10-14 01:09:00,
2013-10-13 21:14:00,48.5,40.6,30.39,WNW,298,2.8,18.2,74,0.00,,,0.00,VWS V14.01,2013-10-14 01:14:00,
2013-10-13 21:19:00,48.6,40.7,30.39,WNW,301,1.4,18.2,74,0.00,,,0.00,VWS V14.01,2013-10-14 01:19:00,
2013-10-13 21:24:00,48.6,40.3,30.39,NE,35,4.2,18.2,73,0.00,,,0.00,VWS V14.01,2013-10-14 01:24:00,
2013-10-13 21:29:00,48.6,40.0,30.39,WSW,250,4.2,18.2,72,0.00,,,0.00,VWS V14.01,2013-10-14 01:29:00,
2013-10-13 21:34:00,48.6,40.3,30.39,NW,319,5.6,18.2,73,0.00,,,0.00,VWS V14.01,2013-10-14 01:34:00,
2013-10-13 21:39:00,48.5,40.6,30.40,NW,316,1.4,18.2,74,0.00,,,0.00,VWS V14.01,2013-10-14 01:39:00,
2013-10-13 21:44:00,48.4,39.8,30.40,WNW,302,4.2,18.2,72,0.00,,,0.00,VWS V14.01,2013-10-14 01:44:00,
2013-10-13 21:49:00,48.5,39.9,30.39,West,281,5.6,18.2,72,0.00,,,0.00,VWS V14.01,2013-10-14 01:49:00,
2013-10-13 21:54:00,48.6,39.3,30.40,WSW,253,2.8,18.2,70,0.00,,,0.00,VWS V14.01,2013-10-14 01:54:00,
2013-10-13 21:59:00,48.6,39.3,30.40,NNW,342,2.8,18.2,70,0.00,,,0.00,VWS V14.01,2013-10-14 01:59:00,
2013-10-13 22:00:00,48.6,39.3,30.40,NNW,331,5.6,18.2,70,0.00,,,0.00,VWS V14.01,2013-10-14 02:00:00,
2013-10-13 22:04:00,48.5,39.2,30.40,NE,41,5.6,12.6,70,0.00,,,0.00,VWS V14.01,2013-10-14 02:04:00,
2013-10-13 22:09:00,48.5,39.2,30.40,NNW,338,7.0,12.6,70,0.00,,,0.00,VWS V14.01,2013-10-14 02:09:00,
2013-10-13 22:14:00,48.4,39.4,30.40,SSE,160,5.6,12.6,71,0.00,,,0.00,VWS V14.01,2013-10-14 02:14:00,
2013-10-13 22:19:00,48.3,39.3,30.39,WNW,283,4.2,12.6,71,0.00,,,0.00,VWS V14.01,2013-10-14 02:19:00,
2013-10-13 22:24:00,48.3,39.3,30.40,North,352,5.6,12.6,71,0.00,,,0.00,VWS V14.01,2013-10-14 02:24:00,
2013-10-13 22:29:00,48.2,38.9,30.40,NE,41,5.6,14.0,70,0.00,,,0.00,VWS V14.01,2013-10-14 02:29:00,
2013-10-13 22:34:00,48.3,39.0,30.40,West,262,2.8,14.0,70,0.00,,,0.00,VWS V14.01,2013-10-14 02:34:00,
2013-10-13 22:39:00,48.0,39.1,30.40,WNW,288,1.4,14.0,71,0.00,,,0.00,VWS V14.01,2013-10-14 02:39:00,
2013-10-13 22:44:00,47.7,39.5,30.40,WNW,288,1.4,14.0,73,0.00,,,0.00,VWS V14.01,2013-10-14 02:44:00,
2013-10-13 22:49:00,47.6,39.4,30.40,SW,226,2.8,15.4,73,0.00,,,0.00,VWS V14.01,2013-10-14 02:49:00,
2013-10-13 22:54:00,47.9,38.6,30.40,West,274,1.4,15.4,70,0.00,,,0.00,VWS V14.01,2013-10-14 02:54:00,
2013-10-13 22:59:00,47.9,39.0,30.41,NNE,21,4.2,15.4,71,0.00,,,0.00,VWS V14.01,2013-10-14 02:59:00,
2013-10-13 23:00:00,48.6,39.3,30.40,NNW,331,5.6,18.2,70,0.00,,,0.00,VWS V14.01,2013-10-14 03:00:00,
2013-10-13 23:04:00,48.0,38.7,30.40,West,281,2.8,15.4,70,0.00,,,0.00,VWS V14.01,2013-10-14 03:04:00,
2013-10-13 23:09:00,48.3,39.0,30.40,NW,322,1.4,15.4,70,0.00,,,0.00,VWS V14.01,2013-10-14 03:09:00,
2013-10-13 23:14:00,48.4,38.7,30.40,NNE,27,4.2,15.4,69,0.00,,,0.00,VWS V14.01,2013-10-14 03:14:00,
2013-10-13 23:19:00,48.3,38.6,30.40,West,267,2.8,15.4,69,0.00,,,0.00,VWS V14.01,2013-10-14 03:19:00,
2013-10-13 23:24:00,48.3,38.6,30.41,NW,317,12.6,15.4,69,0.00,,,0.00,VWS V14.01,2013-10-14 03:24:00,
2013-10-13 23:29:00,48.5,38.4,30.41,NW,324,7.0,15.4,68,0.00,,,0.00,VWS V14.01,2013-10-14 03:29:00,
2013-10-13 23:34:00,48.6,38.5,30.41,NW,322,0.0,16.8,68,0.00,,,0.00,VWS V14.01,2013-10-14 03:34:00,
2013-10-13 23:39:00,48.5,39.2,30.41,WSW,252,1.4,16.8,70,0.00,,,0.00,VWS V14.01,2013-10-14 03:39:00,
2013-10-13 23:44:00,47.5,39.6,30.41,WSW,252,2.8,16.8,74,0.00,,,0.00,VWS V14.01,2013-10-14 03:44:00,
2013-10-13 23:49:00,45.9,39.1,30.41,SSW,207,1.4,16.8,77,0.00,,,0.00,VWS V14.01,2013-10-14 03:49:00,
2013-10-13 23:54:00,44.7,38.9,30.41,SW,219,1.4,16.8,80,0.00,,,0.00,VWS V14.01,2013-10-14 03:54:00,
2013-10-13 23:59:00,43.9,38.8,30.41,WSW,242,4.2,16.8,82,0.00,,,0.00,VWS V14.01,2013-10-14 03:59:00,